Chenois Creek, Washington
Current Conditions -  °F | °C
As of 3:53 AM on Thursday 23 Oct 2014 (Local Time) from KHQM Reporting Station
Overcast Overcast  
Wind Chill: 54°   Ceiling: 3300
Heat Index: 54°   Visibility: 7mi
Dew Point: 52°   Wind: 8mph
Humidity: 93%   Direction: 50°NE
Pressure: 29.68"   Gusts: NA
Location:  47.0202°N, 123.878°W
Report Text: KHQM 231053Z AUTO 05007KT 7SM FEW006 BKN033 OVC110 12/11 A2968 RMK AO2 SLP055 T01220111
Loading
Personal Weather Stations






























Interactive Weather Map
Tropical Storm Tracking
New forecast layout! Learn more

10-Day Weather Forecast

Advertisements
Track Severe Weather on mobile